Time;durP1;ratioP1;P1;durP2;ratioP2;P2;SDS_P1;SDS_P2;PMS_P1;PMS_P2;Temp;Humidity;BMP_temperature;BMP_pressure;BME280_temperature;BME280_humidity;BME280_pressure;Samples;Min_cycle;Max_cycle;Signal;HPM_P1;HPM_P2
2022/06/07 00:02:15;;;;;;;4.42;2.83;;;;;;;17.98;100.00;98134.03;1696557;83;27990;-86
2022/06/07 00:04:42;;;;;;;3.80;2.80;;;;;;;17.95;100.00;98135.66;1700152;83;28065;-85
2022/06/07 00:07:10;;;;;;;5.10;2.58;;;;;;;17.94;100.00;98131.38;1707864;82;28136;-84
2022/06/07 00:09:36;;;;;;;4.05;2.55;;;;;;;17.90;100.00;98132.66;1691972;84;28097;-85
2022/06/07 00:12:04;;;;;;;5.92;2.55;;;;;;;17.88;100.00;98128.53;1688727;84;28069;-85
2022/06/07 00:14:32;;;;;;;5.28;2.60;;;;;;;17.85;100.00;98128.84;1703104;83;28183;-88
2022/06/07 00:16:59;;;;;;;6.00;2.67;;;;;;;17.81;100.00;98124.38;1700464;83;28120;-89
2022/06/07 00:19:26;;;;;;;3.75;2.83;;;;;;;17.79;100.00;98124.18;1704102;82;28079;-85
2022/06/07 00:21:54;;;;;;;3.65;2.80;;;;;;;17.75;100.00;98125.00;1733143;82;28070;-85
2022/06/07 00:24:28;;;;;;;5.97;2.85;;;;;;;17.75;100.00;98122.36;1739138;81;28145;-85
2022/06/07 00:26:56;;;;;;;3.98;2.22;;;;;;;17.74;100.00;98125.98;1704998;82;28133;-85
2022/06/07 00:29:24;;;;;;;2.60;2.27;;;;;;;17.72;100.00;98123.18;1726911;82;28047;-85
2022/06/07 00:31:50;;;;;;;4.78;2.67;;;;;;;17.69;100.00;98126.13;1728099;81;28150;-85
2022/06/07 00:34:24;;;;;;;2.80;2.42;;;;;;;17.66;100.00;98127.30;1716055;82;28036;-85
2022/06/07 00:36:50;;;;;;;3.60;2.30;;;;;;;17.60;100.00;98121.80;1727355;82;28096;-84
2022/06/07 00:39:31;;;;;;;4.00;2.70;;;;;;;17.55;100.00;98113.82;1730946;81;28013;-85
2022/06/07 00:42:01;;;;;;;3.77;2.80;;;;;;;17.51;100.00;98119.06;1722478;81;28096;-88
2022/06/07 00:44:43;;;;;;;5.70;3.00;;;;;;;17.50;100.00;98109.50;1730997;82;28070;-88
2022/06/07 00:47:12;;;;;;;4.03;2.50;;;;;;;17.48;100.00;98111.46;1731166;80;28125;-89
2022/06/07 00:49:45;;;;;;;6.05;2.83;;;;;;;17.46;100.00;98102.02;1731605;81;28153;-89
2022/06/07 00:52:12;;;;;;;4.90;2.00;;;;;;;17.43;100.00;98102.34;1716024;81;28098;-84
2022/06/07 00:54:38;;;;;;;3.90;2.50;;;;;;;17.37;100.00;98100.33;1711476;81;28100;-84
2022/06/07 00:57:05;;;;;;;4.15;2.80;;;;;;;17.32;100.00;98101.30;1715555;82;28011;-85
2022/06/07 00:59:34;;;;;;;4.15;2.98;;;;;;;17.27;100.00;98104.41;1713610;82;28170;-88
2022/06/07 01:02:00;;;;;;;4.50;3.00;;;;;;;17.24;100.00;98097.30;1714578;82;28073;-88
2022/06/07 01:04:38;;;;;;;3.90;2.87;;;;;;;17.22;100.00;98102.73;1712706;82;28217;-88
2022/06/07 01:12:35;;;;;;;3.45;2.55;;;;;;;17.14;100.00;98091.61;1712699;82;28076;-88
2022/06/07 01:15:06;;;;;;;3.75;2.37;;;;;;;17.09;100.00;98085.95;1711441;82;28089;-88
2022/06/07 01:17:34;;;;;;;3.37;2.62;;;;;;;17.05;100.00;98085.94;1711315;82;28230;-85
2022/06/07 01:20:07;;;;;;;3.75;2.52;;;;;;;17.05;100.00;98079.82;1712226;82;28074;-86
2022/06/07 01:22:33;;;;;;;2.60;2.40;;;;;;;17.04;100.00;98079.48;1708435;82;28124;-84
2022/06/07 01:25:03;;;;;;;3.75;2.40;;;;;;;17.03;100.00;98082.61;1713456;82;28069;-84
2022/06/07 01:27:35;;;;;;;5.42;2.10;;;;;;;17.02;100.00;98080.15;1712456;82;28151;-84
2022/06/07 01:30:04;;;;;;;2.40;2.20;;;;;;;17.02;100.00;98074.34;1713753;82;28079;-86
2022/06/07 01:33:04;;;;;;;2.55;2.33;;;;;;;17.01;100.00;98071.88;1717110;82;28084;-84
2022/06/07 01:35:36;;;;;;;2.62;2.37;;;;;;;16.99;100.00;98074.66;1713955;82;28077;-85
2022/06/07 01:38:09;;;;;;;2.80;2.55;;;;;;;16.99;100.00;98063.26;1708487;82;28084;-84
2022/06/07 01:43:24;;;;;;;3.60;2.55;;;;;;;16.93;100.00;98062.56;1711941;82;28156;-85
2022/06/07 01:45:52;;;;;;;4.00;2.52;;;;;;;16.93;100.00;98065.20;1679385;84;28080;-85
2022/06/07 01:48:18;;;;;;;3.60;2.40;;;;;;;16.93;100.00;98058.10;1698257;82;28230;-83
2022/06/07 01:50:45;;;;;;;4.00;2.40;;;;;;;16.94;100.00;98058.45;1716975;82;28114;-84
2022/06/07 01:53:11;;;;;;;3.37;2.45;;;;;;;16.94;100.00;98057.13;1707685;82;28136;-85
2022/06/07 01:55:40;;;;;;;3.27;2.40;;;;;;;16.91;100.00;98063.23;1705076;82;28125;-89
2022/06/07 01:58:06;;;;;;;3.52;2.02;;;;;;;16.92;100.00;98059.57;1708088;82;28071;-86
2022/06/07 02:00:33;;;;;;;2.80;2.20;;;;;;;16.93;100.00;98047.53;1702856;83;28126;-85
2022/06/07 02:03:00;;;;;;;3.08;2.47;;;;;;;16.97;100.00;98049.36;1702559;82;28088;-86
2022/06/07 02:05:27;;;;;;;3.83;2.12;;;;;;;16.97;100.00;98050.19;1709423;82;28107;-84
2022/06/07 02:07:53;;;;;;;3.12;2.22;;;;;;;16.96;100.00;98048.55;1704920;83;28111;-89
2022/06/07 02:10:20;;;;;;;2.47;2.22;;;;;;;16.97;100.00;98048.03;1709970;82;28086;-84
2022/06/07 02:12:46;;;;;;;4.05;2.72;;;;;;;16.95;100.00;98044.25;1706297;82;28180;-83
2022/06/07 02:15:12;;;;;;;3.80;2.62;;;;;;;16.95;100.00;98038.12;1702601;82;28122;-85
2022/06/07 02:17:39;;;;;;;4.42;2.60;;;;;;;16.89;100.00;98032.14;1705484;82;28187;-85
2022/06/07 02:20:08;;;;;;;2.87;2.60;;;;;;;16.82;100.00;98031.94;1705584;82;28084;-84
2022/06/07 02:22:41;;;;;;;3.12;2.75;;;;;;;16.78;100.00;98032.41;1703246;82;28085;-84
2022/06/07 02:25:07;;;;;;;3.22;2.83;;;;;;;16.74;100.00;98031.90;1709219;82;28072;-83
2022/06/07 02:27:33;;;;;;;3.83;2.92;;;;;;;16.67;100.00;98030.36;1703475;82;28079;-83
2022/06/07 02:30:00;;;;;;;4.33;2.83;;;;;;;16.62;100.00;98035.77;1710096;83;28100;-85
2022/06/07 02:32:33;;;;;;;3.95;3.27;;;;;;;16.58;100.00;98035.72;1704762;82;27978;-88
2022/06/07 02:35:02;;;;;;;3.12;2.80;;;;;;;16.51;100.00;98035.50;1707136;82;28141;-88
2022/06/07 02:37:38;;;;;;;3.25;2.95;;;;;;;16.47;100.00;98035.97;1709534;82;28148;-84
2022/06/07 02:40:08;;;;;;;3.45;2.98;;;;;;;16.44;100.00;98034.94;1706349;83;28027;-84
2022/06/07 02:42:35;;;;;;;5.87;2.80;;;;;;;16.42;100.00;98039.04;1705976;82;28078;-85
2022/06/07 02:45:01;;;;;;;3.60;2.67;;;;;;;16.42;100.00;98034.28;1705969;83;28144;-85
2022/06/07 02:47:27;;;;;;;4.67;3.05;;;;;;;16.43;100.00;98038.55;1703561;83;28138;-85
2022/06/07 02:49:54;;;;;;;4.60;2.90;;;;;;;16.44;100.00;98038.89;1705117;83;28025;-85
2022/06/07 02:52:20;;;;;;;3.50;2.92;;;;;;;16.43;100.00;98034.10;1725803;81;28119;-84
2022/06/07 02:54:47;;;;;;;2.72;2.40;;;;;;;16.42;100.00;98035.08;1723829;81;28081;-84
2022/06/07 02:57:15;;;;;;;5.47;3.02;;;;;;;16.42;100.00;98036.92;1740804;82;28065;-84
2022/06/07 02:59:43;;;;;;;6.22;3.22;;;;;;;16.43;100.00;98036.74;1739510;82;28078;-84
2022/06/07 03:02:09;;;;;;;3.77;2.85;;;;;;;16.44;100.00;98041.05;1738720;81;28109;-85
2022/06/07 03:04:36;;;;;;;3.33;2.95;;;;;;;16.44;100.00;98040.22;1725904;82;28097;-83
2022/06/07 03:07:04;;;;;;;3.45;3.00;;;;;;;16.42;100.00;98040.36;1724925;82;28105;-88
2022/06/07 03:09:31;;;;;;;3.27;2.65;;;;;;;16.42;100.00;98039.04;1732171;81;28101;-85
2022/06/07 03:11:57;;;;;;;4.92;2.80;;;;;;;16.42;100.00;98031.12;1726409;82;28039;-83
2022/06/07 03:14:23;;;;;;;4.03;2.70;;;;;;;16.42;100.00;98037.72;1727181;82;28104;-85
2022/06/07 03:16:49;;;;;;;5.00;3.30;;;;;;;16.43;100.00;98034.10;1733318;81;28145;-84
2022/06/07 03:19:16;;;;;;;3.75;2.83;;;;;;;16.46;100.00;98031.66;1730429;82;28090;-84
2022/06/07 03:21:42;;;;;;;3.87;3.02;;;;;;;16.48;100.00;98025.71;1726269;81;28084;-85
2022/06/07 03:24:12;;;;;;;3.42;2.90;;;;;;;16.50;100.00;98029.88;1726563;81;28136;-87
2022/06/07 03:26:41;;;;;;;3.92;2.77;;;;;;;16.54;100.00;98033.02;1741251;81;28097;-88
2022/06/07 03:29:07;;;;;;;4.10;2.98;;;;;;;16.58;100.00;98026.47;1744759;81;28047;-84
2022/06/07 03:31:34;;;;;;;3.22;2.80;;;;;;;16.66;100.00;98035.30;1740923;82;28077;-84
2022/06/07 03:34:00;;;;;;;5.28;2.92;;;;;;;16.71;100.00;98024.27;1739269;81;28098;-88
2022/06/07 03:36:29;;;;;;;4.05;2.85;;;;;;;16.78;100.00;98028.44;1736562;81;28024;-84
2022/06/07 03:38:58;;;;;;;4.90;2.90;;;;;;;16.80;100.00;98024.64;1736730;82;28080;-84
2022/06/07 03:41:27;;;;;;;2.50;2.30;;;;;;;16.84;100.00;98026.50;1738910;81;28111;-84
2022/06/07 03:43:57;;;;;;;3.90;2.87;;;;;;;16.95;100.00;98030.20;1741399;81;28048;-88
2022/06/07 03:46:25;;;;;;;3.12;2.75;;;;;;;17.07;100.00;98028.42;1704074;83;28146;-88
2022/06/07 03:48:53;;;;;;;3.47;3.10;;;;;;;17.19;100.00;98024.19;1701654;83;28071;-84
2022/06/07 03:51:23;;;;;;;2.72;2.42;;;;;;;17.35;100.00;98025.08;1703114;82;28088;-87
2022/06/07 03:53:50;;;;;;;3.33;2.52;;;;;;;17.53;100.00;98034.25;1697988;84;28187;-88
2022/06/07 03:56:17;;;;;;;4.08;2.42;;;;;;;17.69;100.00;98029.03;1697088;83;28052;-85
2022/06/07 03:58:44;;;;;;;3.83;2.77;;;;;;;17.83;100.00;98031.56;1691484;83;28100;-85
2022/06/07 04:01:16;;;;;;;3.55;2.58;;;;;;;17.98;100.00;98025.47;1698041;83;28093;-85
2022/06/07 04:03:45;;;;;;;3.10;2.12;;;;;;;18.10;100.00;98020.69;1696282;83;28495;-85
2022/06/07 04:06:22;;;;;;;3.55;2.50;;;;;;;18.20;100.00;98017.87;1693063;83;28078;-85
2022/06/07 04:08:48;;;;;;;3.83;2.62;;;;;;;18.32;100.00;98014.73;1693655;84;28077;-85
2022/06/07 04:11:18;;;;;;;4.15;2.50;;;;;;;18.53;100.00;98014.22;1698122;83;28211;-88
2022/06/07 04:13:44;;;;;;;3.52;2.60;;;;;;;18.75;100.00;98010.91;1731271;81;28088;-85
2022/06/07 04:16:14;;;;;;;2.67;2.47;;;;;;;18.93;100.00;98008.55;1734364;81;28091;-85
2022/06/07 04:18:43;;;;;;;3.20;2.50;;;;;;;19.11;100.00;98005.16;1733819;82;28091;-85
2022/06/07 04:21:13;;;;;;;3.85;2.70;;;;;;;19.28;100.00;98005.92;1731095;82;28124;-88
2022/06/07 04:23:42;;;;;;;3.58;2.40;;;;;;;19.45;100.00;98006.22;1732437;82;28109;-85
2022/06/07 04:26:13;;;;;;;3.52;2.22;;;;;;;19.62;100.00;97998.50;1724904;81;28082;-85
2022/06/07 04:28:40;;;;;;;2.47;2.10;;;;;;;19.74;100.00;98008.23;1731301;82;28120;-87
2022/06/07 04:31:12;;;;;;;2.95;2.00;;;;;;;19.84;100.00;98008.83;1730896;82;28041;-88
2022/06/07 04:33:38;;;;;;;2.33;2.08;;;;;;;19.92;100.00;98006.09;1697061;83;28094;-88
2022/06/07 04:36:11;;;;;;;2.47;2.10;;;;;;;20.00;100.00;98007.39;1702480;83;28072;-88
2022/06/07 04:38:37;;;;;;;3.15;2.00;;;;;;;20.06;100.00;98008.02;1698580;83;27999;-88
2022/06/07 04:41:07;;;;;;;2.17;1.85;;;;;;;20.04;100.00;98007.35;1702122;83;28096;-84
2022/06/07 04:43:33;;;;;;;2.52;2.02;;;;;;;20.02;100.00;98006.19;1700557;83;28130;-84
2022/06/07 04:46:04;;;;;;;2.83;2.40;;;;;;;20.04;100.00;98004.70;1693609;83;28101;-84
2022/06/07 04:48:31;;;;;;;2.12;1.90;;;;;;;20.04;100.00;98002.04;1694015;84;28187;-85
2022/06/07 04:51:03;;;;;;;2.83;1.98;;;;;;;20.01;100.00;97999.75;1697043;83;28127;-88
2022/06/07 04:53:31;;;;;;;2.80;1.75;;;;;;;20.00;100.00;98002.08;1703572;83;28104;-86
2022/06/07 04:55:59;;;;;;;2.17;1.98;;;;;;;19.94;100.00;98006.77;1701505;81;28064;-86
2022/06/07 04:58:28;;;;;;;2.58;2.12;;;;;;;19.93;100.00;98003.78;1745870;81;28228;-85
2022/06/07 05:00:54;;;;;;;3.75;2.00;;;;;;;19.94;100.00;98015.56;1740650;81;28077;-88
2022/06/07 05:03:21;;;;;;;2.62;2.00;;;;;;;19.91;100.00;98012.44;1746782;80;28122;-87
2022/06/07 05:05:47;;;;;;;1.77;1.67;;;;;;;19.87;100.00;98009.79;1749105;80;28002;-84
2022/06/07 05:08:13;;;;;;;2.20;2.00;;;;;;;19.85;100.00;98008.66;1723817;82;28089;-84
2022/06/07 05:10:44;;;;;;;2.42;2.00;;;;;;;19.86;100.00;98012.94;1704771;83;28112;-83
2022/06/07 05:13:09;;;;;;;2.40;2.00;;;;;;;19.90;100.00;98014.27;1739733;81;27989;-84
2022/06/07 05:15:35;;;;;;;3.12;2.05;;;;;;;19.92;100.00;98014.07;1746681;81;28149;-84
2022/06/07 05:18:02;;;;;;;2.00;1.90;;;;;;;19.97;100.00;98007.72;1751924;81;28114;-84
2022/06/07 05:20:28;;;;;;;3.98;2.08;;;;;;;20.05;100.00;97998.38;1751623;81;28144;-84
2022/06/07 05:22:55;;;;;;;2.12;1.75;;;;;;;20.14;100.00;97999.14;1744006;81;28274;-84
2022/06/07 05:25:21;;;;;;;2.10;1.90;;;;;;;20.27;100.00;98002.03;1745555;81;28083;-84
2022/06/07 05:27:49;;;;;;;4.37;2.10;;;;;;;20.39;100.00;98008.11;1743476;81;28077;-84
2022/06/07 05:30:16;;;;;;;2.17;1.90;;;;;;;20.49;100.00;98005.20;1745912;80;28053;-87
2022/06/07 05:32:43;;;;;;;1.95;1.80;;;;;;;20.60;100.00;98005.27;1749704;81;28175;-89
2022/06/07 05:35:10;;;;;;;2.25;2.05;;;;;;;20.70;100.00;98004.00;1752355;80;28167;-84
2022/06/07 05:37:36;;;;;;;1.92;1.75;;;;;;;20.83;100.00;98006.04;1751166;81;28076;-84
2022/06/07 05:40:04;;;;;;;3.12;1.90;;;;;;;20.93;100.00;98002.60;1747754;80;28277;-84
2022/06/07 05:42:30;;;;;;;2.72;2.10;;;;;;;21.04;100.00;98007.97;1746831;81;28078;-83
2022/06/07 05:44:57;;;;;;;1.98;1.80;;;;;;;21.12;100.00;98004.70;1738596;82;28199;-83
2022/06/07 05:47:24;;;;;;;2.35;1.80;;;;;;;21.23;100.00;98009.59;1738631;82;28082;-83
2022/06/07 05:49:52;;;;;;;2.08;1.70;;;;;;;21.39;100.00;98006.41;1737673;82;28103;-88
2022/06/07 05:52:19;;;;;;;2.22;1.90;;;;;;;21.54;100.00;98007.23;1736004;82;28122;-85
2022/06/07 05:54:46;;;;;;;1.90;1.80;;;;;;;21.61;100.00;98012.94;1741720;81;28001;-88
2022/06/07 05:57:13;;;;;;;3.37;2.27;;;;;;;21.70;100.00;98011.00;1741422;81;28102;-84
2022/06/07 05:59:39;;;;;;;2.22;1.70;;;;;;;21.79;100.00;98012.53;1748674;81;28209;-88
2022/06/07 06:02:10;;;;;;;2.20;1.82;;;;;;;21.92;100.00;98011.36;1711252;82;28083;-85
2022/06/07 06:04:36;;;;;;;2.85;1.95;;;;;;;22.02;100.00;98009.23;1748816;81;28003;-85
2022/06/07 06:07:03;;;;;;;2.08;1.60;;;;;;;22.15;100.00;98011.18;1746324;80;28150;-88
2022/06/07 06:12:23;;;;;;;2.17;1.55;;;;;;;22.11;100.00;98016.08;1743579;82;28116;-89
2022/06/07 06:14:49;;;;;;;2.10;1.87;;;;;;;22.26;100.00;98013.34;1745791;81;28134;-89
2022/06/07 06:17:16;;;;;;;1.90;1.70;;;;;;;22.38;100.00;98008.32;1740985;81;28148;-89
2022/06/07 06:19:42;;;;;;;2.10;1.62;;;;;;;22.47;100.00;98009.85;1739977;82;28057;-84
2022/06/07 06:22:08;;;;;;;1.95;1.70;;;;;;;22.59;100.00;98008.28;1746347;81;28088;-85
2022/06/07 06:24:35;;;;;;;2.02;1.77;;;;;;;22.70;100.00;98009.59;1743305;80;28426;-84
2022/06/07 06:27:01;;;;;;;2.65;2.45;;;;;;;22.78;100.00;98006.33;1743447;81;28076;-85
2022/06/07 06:29:27;;;;;;;1.90;1.80;;;;;;;22.85;100.00;98009.05;1748577;81;28058;-85
2022/06/07 06:31:54;;;;;;;;;;;;;;;22.88;100.00;98005.47;1752561;81;28114;-89
2022/06/07 06:34:20;;;;;;;;;;;;;;;22.94;100.00;98006.53;1748448;81;20265;-85
2022/06/07 06:36:47;;;;;;;;;;;;;;;22.98;100.00;98006.95;1734322;82;20202;-85
2022/06/07 06:39:15;;;;;;;;;;;;;;;23.02;100.00;98002.89;1721614;83;21660;-84
2022/06/07 06:41:41;;;;;;;;;;;;;;;23.00;100.00;98000.92;1749576;81;26863;-85
2022/06/07 06:44:09;;;;;;;3.08;2.00;;;;;;;23.09;100.00;98007.73;1711817;82;24498;-84
2022/06/07 06:46:39;;;;;;;2.30;2.00;;;;;;;23.15;100.00;98005.62;1740813;81;28087;-84
2022/06/07 06:49:05;;;;;;;;;;;;;;;23.21;100.00;98012.34;1742623;81;28084;-84
2022/06/07 06:51:32;;;;;;;;;;;;;;;23.26;100.00;98009.89;1742199;82;22881;-84
2022/06/07 06:54:00;;;;;;;2.05;1.82;;;;;;;23.30;100.00;98002.30;1737338;82;26149;-84
2022/06/07 06:56:32;;;;;;;2.17;1.98;;;;;;;23.34;100.00;97998.23;1737000;81;28002;-85
2022/06/07 06:59:02;;;;;;;2.70;2.02;;;;;;;23.43;100.00;97995.70;1733615;82;28003;-85
2022/06/07 07:01:35;;;;;;;2.20;1.98;;;;;;;23.52;100.00;97991.85;1738126;81;28097;-84
2022/06/07 07:04:07;;;;;;;3.87;2.20;;;;;;;23.62;100.00;97990.96;1738629;82;28159;-85
2022/06/07 07:06:34;;;;;;;2.20;2.00;;;;;;;23.57;100.00;97989.41;1733869;82;28083;-85
2022/06/07 07:09:00;;;;;;;2.70;2.15;;;;;;;23.57;100.00;97986.73;1733357;81;28099;-84
2022/06/07 07:11:48;;;;;;;1.90;1.80;;;;;;;23.47;100.00;97986.28;1733327;81;28211;-84
2022/06/07 07:14:16;;;;;;;3.65;2.00;;;;;;;23.36;100.00;97988.16;1738370;82;28052;-84
2022/06/07 07:16:47;;;;;;;2.92;1.98;;;;;;;23.27;100.00;97990.19;1735783;80;28187;-83
2022/06/07 07:19:14;;;;;;;2.98;2.12;;;;;;;23.39;100.00;97985.62;1739974;80;28054;-85
2022/06/07 07:21:45;;;;;;;2.75;2.12;;;;;;;23.37;100.00;97985.81;1738053;81;28094;-89
2022/06/07 07:24:15;;;;;;;2.70;2.50;;;;;;;23.26;100.00;97985.03;1729472;81;28094;-85
2022/06/07 07:26:43;;;;;;;2.40;2.17;;;;;;;23.24;100.00;97982.55;1736264;82;28088;-83
2022/06/07 07:29:12;;;;;;;2.50;2.30;;;;;;;23.23;100.00;97984.94;1741546;80;28203;-84
2022/06/07 07:31:39;;;;;;;2.12;2.00;;;;;;;23.26;100.00;97981.86;1737839;80;28007;-84
2022/06/07 07:34:07;;;;;;;2.25;1.95;;;;;;;23.34;100.00;97985.71;1736250;82;28143;-85
2022/06/07 07:36:35;;;;;;;2.40;2.20;;;;;;;23.39;100.00;97985.62;1737784;80;28158;-89
2022/06/07 07:39:01;;;;;;;2.45;2.25;;;;;;;23.57;100.00;97985.39;1735625;81;28082;-84
2022/06/07 07:41:31;;;;;;;2.60;2.40;;;;;;;23.66;100.00;97984.72;1735540;80;28139;-89
2022/06/07 07:44:00;;;;;;;3.33;2.27;;;;;;;23.76;100.00;97980.64;1736865;81;28189;-85
2022/06/07 07:46:29;;;;;;;2.20;2.00;;;;;;;23.84;100.00;97985.50;1739341;81;28100;-84
2022/06/07 07:48:58;;;;;;;2.53;2.20;;;;;;;23.95;100.00;97987.04;1741888;80;28014;-84
2022/06/07 07:51:27;;;;;;;2.47;2.05;;;;;;;23.88;100.00;97985.40;1735561;82;28070;-85
2022/06/07 07:53:56;;;;;;;2.50;2.30;;;;;;;23.66;100.00;97981.55;1738434;82;28206;-85
2022/06/07 07:56:25;;;;;;;4.65;2.40;;;;;;;23.65;100.00;97981.73;1738179;82;28100;-85
2022/06/07 07:58:53;;;;;;;2.40;2.10;;;;;;;23.78;100.00;97983.63;1735520;82;28097;-85
2022/06/07 08:01:21;;;;;;;2.77;2.25;;;;;;;23.91;100.00;97987.14;1734756;82;28094;-89
2022/06/07 08:03:52;;;;;;;2.40;2.20;;;;;;;24.06;100.00;97981.61;1737060;81;28107;-89
2022/06/07 08:06:20;;;;;;;2.35;2.12;;;;;;;24.11;100.00;97977.84;1737376;82;28058;-89
2022/06/07 08:08:49;;;;;;;2.00;1.90;;;;;;;24.17;100.00;97978.33;1737948;80;28091;-88
2022/06/07 08:11:18;;;;;;;2.10;1.98;;;;;;;24.22;100.00;97979.11;1739134;82;28017;-89
2022/06/07 08:13:44;;;;;;;2.22;1.95;;;;;;;24.25;100.00;97984.05;1733962;82;28054;-84
2022/06/07 08:16:20;;;;;;;2.20;1.82;;;;;;;24.28;100.00;97981.77;1734074;82;28159;-84
2022/06/07 08:18:47;;;;;;;2.27;2.05;;;;;;;24.32;100.00;97975.01;1738018;82;28190;-89
2022/06/07 08:21:20;;;;;;;2.37;1.90;;;;;;;24.36;100.00;97978.08;1736589;82;28542;-89
2022/06/07 08:23:55;;;;;;;2.47;2.27;;;;;;;24.48;100.00;97979.94;1734784;82;28070;-86
2022/06/07 08:26:23;;;;;;;2.25;2.05;;;;;;;24.57;100.00;97975.19;1738432;82;28107;-85
2022/06/07 08:28:50;;;;;;;3.52;2.00;;;;;;;24.56;100.00;97975.70;1737093;82;28232;-89
2022/06/07 08:31:20;;;;;;;2.90;1.80;;;;;;;24.56;100.00;97973.54;1733512;82;28009;-87
2022/06/07 08:39:19;;;;;;;2.40;1.60;;;;;;;24.45;100.00;97970.98;1741256;80;28006;-85
2022/06/07 08:42:02;;;;;;;2.92;1.92;;;;;;;24.56;100.00;97959.65;1740886;81;28077;-85
2022/06/07 08:44:45;;;;;;;5.28;2.30;;;;;;;24.65;100.00;97952.25;1734442;81;28204;-85
2022/06/07 08:47:15;;;;;;;3.37;1.95;;;;;;;24.69;100.00;97958.00;1733701;81;28077;-86
2022/06/07 08:49:58;;;;;;;2.27;2.00;;;;;;;24.89;100.00;97957.47;1733920;81;28167;-86
2022/06/07 08:52:31;;;;;;;2.30;2.00;;;;;;;24.99;100.00;97962.69;1728083;82;28059;-87
2022/06/07 08:55:14;;;;;;;2.27;2.08;;;;;;;25.02;100.00;97954.77;1713420;82;28088;-87
2022/06/07 08:57:47;;;;;;;2.33;2.12;;;;;;;24.91;100.00;97953.56;1705108;82;28163;-86
2022/06/07 09:00:17;;;;;;;2.17;1.95;;;;;;;24.88;100.00;97955.30;1710644;82;28120;-89
2022/06/07 09:03:15;;;;;;;1.70;1.60;;;;;;;24.82;100.00;97952.64;1708917;82;28069;-84
2022/06/07 09:05:41;;;;;;;1.90;1.52;;;;;;;24.84;100.00;97945.20;1636841;85;28245;-84
2022/06/07 09:08:19;;;;;;;3.12;1.87;;;;;;;24.85;100.00;97950.86;1709379;82;28133;-86
2022/06/07 09:13:45;;;;;;;2.33;1.80;;;;;;;24.92;100.00;97950.37;1713156;82;28107;-84
2022/06/07 09:16:20;;;;;;;5.87;2.08;;;;;;;24.94;100.00;97952.30;1710863;82;28073;-88
2022/06/07 09:18:49;;;;;;;2.33;1.67;;;;;;;25.04;100.00;97945.20;1710349;82;28160;-89
2022/06/07 09:21:24;;;;;;;2.65;2.00;;;;;;;25.14;100.00;97938.88;1708538;82;28045;-89
2022/06/07 09:27:19;;;;;;;2.05;1.85;;;;;;;25.22;100.00;97931.41;1710169;82;28112;-86
2022/06/07 09:29:54;;;;;;;2.70;1.80;;;;;;;25.31;100.00;97927.45;1719559;82;28059;-89
2022/06/07 09:32:24;;;;;;;3.72;2.00;;;;;;;25.50;100.00;97927.58;1718282;82;28084;-89
2022/06/07 09:34:57;;;;;;;1.70;1.60;;;;;;;25.52;100.00;97927.69;1713746;82;28183;-84
2022/06/07 09:37:32;;;;;;;2.12;1.92;;;;;;;25.51;100.00;97922.02;1708915;82;28069;-89
2022/06/07 09:40:11;;;;;;;1.75;1.65;;;;;;;25.56;100.00;97920.88;1708785;83;28069;-85
2022/06/07 09:42:37;;;;;;;1.72;1.62;;;;;;;25.69;99.91;97920.78;1704167;82;28144;-85
2022/06/07 09:45:11;;;;;;;1.98;1.87;;;;;;;25.86;99.50;97916.28;1704646;82;28129;-89
2022/06/07 09:47:38;;;;;;;2.17;1.98;;;;;;;25.85;98.64;97910.09;1703932;83;28058;-89
2022/06/07 09:50:25;;;;;;;2.80;1.82;;;;;;;26.03;98.39;97895.91;1707411;83;28164;-89
2022/06/07 09:52:57;;;;;;;1.67;1.57;;;;;;;26.18;97.87;97887.84;1716048;81;28062;-85
2022/06/07 09:55:42;;;;;;;1.82;1.62;;;;;;;26.25;97.59;97886.47;1737190;81;28070;-85
2022/06/07 09:58:18;;;;;;;1.75;1.62;;;;;;;26.11;96.32;97884.92;1709311;82;28142;-85
2022/06/07 10:00:51;;;;;;;2.12;1.42;;;;;;;26.11;95.96;97871.52;1706386;82;28163;-86
2022/06/07 10:03:21;;;;;;;2.02;1.77;;;;;;;26.10;94.97;97881.42;1737340;82;28157;-84
2022/06/07 10:05:51;;;;;;;1.87;1.47;;;;;;;25.93;93.36;97869.59;1729892;82;28143;-84
2022/06/07 10:08:36;;;;;;;1.60;1.50;;;;;;;25.83;92.38;97869.26;1711958;82;28113;-84
2022/06/07 10:11:06;;;;;;;3.70;1.82;;;;;;;25.70;91.54;97870.16;1736245;81;28194;-83
2022/06/07 10:13:47;;;;;;;3.17;1.62;;;;;;;25.63;90.94;97872.09;1737176;82;28125;-85
2022/06/07 10:16:22;;;;;;;2.35;1.80;;;;;;;25.69;90.72;97874.42;1709944;82;28069;-85
2022/06/07 10:18:55;;;;;;;2.00;1.67;;;;;;;25.76;90.29;97873.32;1697514;82;28116;-85
2022/06/07 10:21:41;;;;;;;2.45;1.47;;;;;;;25.92;90.34;97864.44;1737293;81;28103;-85
2022/06/07 10:24:42;;;;;;;2.05;1.80;;;;;;;26.06;90.06;97865.98;1735375;82;28102;-85
2022/06/07 10:27:15;;;;;;;1.90;1.80;;;;;;;26.10;89.36;97862.64;1738644;81;28062;-84
2022/06/07 10:30:06;;;;;;;2.12;1.50;;;;;;;26.21;89.11;97861.92;1736121;81;28119;-88
2022/06/07 10:32:39;;;;;;;2.58;1.70;;;;;;;26.29;88.97;97862.73;1737504;81;28182;-88
2022/06/07 10:35:29;;;;;;;2.55;1.80;;;;;;;26.31;88.13;97855.26;1733631;81;28134;-85
2022/06/07 10:38:06;;;;;;;2.22;1.80;;;;;;;26.43;87.99;97854.84;1708472;81;28191;-85
2022/06/07 10:41:10;;;;;;;1.80;1.70;;;;;;;26.68;88.23;97851.56;1729617;82;28147;-84
2022/06/07 10:43:47;;;;;;;1.80;1.62;;;;;;;26.82;87.95;97853.07;1733637;81;28095;-88
2022/06/07 10:46:17;;;;;;;2.20;1.55;;;;;;;26.81;86.98;97850.08;1735409;81;28060;-88
2022/06/07 10:48:59;;;;;;;2.08;1.75;;;;;;;26.69;85.89;97849.18;1738349;81;28056;-88
2022/06/07 10:54:29;;;;;;;3.50;1.85;;;;;;;26.53;84.47;97840.38;1743798;81;28168;-83
2022/06/07 10:56:59;;;;;;;2.52;1.60;;;;;;;26.56;84.01;97838.61;1752512;81;28061;-83
2022/06/07 10:59:27;;;;;;;2.55;1.55;;;;;;;26.58;83.72;97824.42;1748733;81;28089;-83
2022/06/07 11:02:00;;;;;;;3.27;1.70;;;;;;;26.56;83.05;97829.22;1753168;81;28088;-88
2022/06/07 11:10:33;;;;;;;1.72;1.52;;;;;;;27.20;84.87;97811.70;1752747;81;28077;-84
2022/06/07 11:13:21;;;;;;;1.92;1.70;;;;;;;27.13;83.29;97812.31;1749487;81;28064;-84
2022/06/07 11:16:00;;;;;;;1.80;1.70;;;;;;;27.03;82.24;97808.31;1739180;80;28126;-83
2022/06/07 11:18:29;;;;;;;1.87;1.70;;;;;;;26.97;81.44;97812.42;1717077;82;28021;-83
2022/06/07 11:21:05;;;;;;;2.00;1.72;;;;;;;27.00;81.24;97802.03;1726207;82;28105;-83
2022/06/07 11:23:38;;;;;;;2.12;1.80;;;;;;;26.93;80.23;97808.03;1728084;82;28193;-85
2022/06/07 11:26:15;;;;;;;3.42;1.65;;;;;;;26.95;80.15;97800.55;1728507;82;25962;-88
2022/06/07 11:28:53;;;;;;;3.50;2.02;;;;;;;27.01;80.01;97792.94;1720470;82;28012;-86
2022/06/07 11:31:23;;;;;;;2.05;1.50;;;;;;;27.15;80.00;97789.56;1726807;82;28153;-87
2022/06/07 11:33:54;;;;;;;2.20;1.70;;;;;;;27.31;79.79;97787.56;1717099;82;28152;-86
2022/06/07 11:36:24;;;;;;;2.12;1.82;;;;;;;27.32;78.55;97789.21;1720155;82;28072;-85
2022/06/07 11:38:57;;;;;;;2.02;1.82;;;;;;;27.37;77.89;97786.66;1707168;83;28105;-84
2022/06/07 11:41:42;;;;;;;2.00;1.80;;;;;;;27.57;78.14;97788.23;1717602;83;28076;-86
2022/06/07 11:44:12;;;;;;;1.65;1.55;;;;;;;27.56;77.02;97787.41;1710512;83;28092;-86
2022/06/07 11:46:57;;;;;;;1.60;1.50;;;;;;;27.43;75.87;97783.57;1716282;83;28091;-88
2022/06/07 11:49:30;;;;;;;2.75;1.35;;;;;;;27.31;74.92;97779.50;1718492;81;28080;-86
2022/06/07 11:52:19;;;;;;;4.30;1.72;;;;;;;27.26;74.43;97774.52;1713938;83;28061;-88
2022/06/07 11:54:53;;;;;;;1.82;1.70;;;;;;;27.10;73.02;97775.17;1704886;82;28069;-89
2022/06/07 11:57:30;;;;;;;1.95;1.60;;;;;;;27.05;72.71;97763.25;1734117;82;28104;-89
2022/06/07 12:00:03;;;;;;;2.20;2.00;;;;;;;27.00;71.69;97759.06;1740193;80;28048;-89
2022/06/07 12:02:38;;;;;;;2.37;1.85;;;;;;;27.00;71.52;97755.03;1740912;81;28189;-85
2022/06/07 12:05:29;;;;;;;1.77;1.60;;;;;;;27.25;72.31;97752.73;1739278;80;28007;-85
2022/06/07 12:08:29;;;;;;;1.85;1.50;;;;;;;27.33;72.16;97749.17;1735877;81;28062;-85
2022/06/07 12:11:05;;;;;;;1.77;1.67;;;;;;;27.34;71.33;97749.99;1739370;81;28080;-85
2022/06/07 12:13:54;;;;;;;1.95;1.50;;;;;;;27.39;71.31;97753.63;1739095;80;28199;-89
2022/06/07 12:16:42;;;;;;;3.30;1.65;;;;;;;27.59;71.11;97747.16;1737067;80;28167;-89
2022/06/07 12:19:09;;;;;;;2.05;1.77;;;;;;;27.51;70.42;97748.83;1735994;80;28103;-88